Time;durP1;ratioP1;P1;durP2;ratioP2;P2;SDS_P1;SDS_P2;PMS_P1;PMS_P2;Temp;Humidity;BMP_temperature;BMP_pressure;BME280_temperature;BME280_humidity;BME280_pressure;Samples;Min_cycle;Max_cycle;Signal;HPM_P1;HPM_P2
2021/11/23 00:00:21;;;;;;;6.25;2.60;;;;;;;3.52;54.97;100859.41;1717393;81;21087;-64
2021/11/23 00:02:49;;;;;;;6.90;2.80;;;;;;;3.52;54.89;100856.34;1740723;80;21075;-65
2021/11/23 00:05:15;;;;;;;6.10;2.62;;;;;;;3.56;55.02;100858.34;1737024;80;21528;-66
2021/11/23 00:07:42;;;;;;;6.37;2.30;;;;;;;3.59;54.88;100858.69;1736143;80;21108;-65
2021/11/23 00:10:09;;;;;;;6.45;2.47;;;;;;;3.61;54.87;100859.45;1736014;80;20992;-65
2021/11/23 00:12:36;;;;;;;4.15;1.90;;;;;;;3.62;54.75;100855.48;1737777;80;21086;-66
2021/11/23 00:15:04;;;;;;;5.78;2.55;;;;;;;3.66;54.51;100855.73;1744588;79;21103;-65
2021/11/23 00:17:31;;;;;;;5.67;2.22;;;;;;;3.68;54.43;100867.37;1734986;80;21023;-65
2021/11/23 00:19:58;;;;;;;4.33;1.98;;;;;;;3.68;54.30;100858.27;1719567;80;21220;-65
2021/11/23 00:22:24;;;;;;;5.47;2.72;;;;;;;3.69;54.27;100870.38;1740354;80;21693;-65
2021/11/23 00:24:51;;;;;;;6.35;2.70;;;;;;;3.67;53.96;100878.25;1740460;80;21092;-65
2021/11/23 00:27:17;;;;;;;6.30;2.40;;;;;;;3.67;53.82;100875.65;1725331;81;21074;-65
2021/11/23 00:29:44;;;;;;;7.17;2.62;;;;;;;3.64;53.94;100871.04;1745212;80;21091;-65
2021/11/23 00:32:10;;;;;;;7.25;2.55;;;;;;;3.62;54.07;100867.20;1744562;80;21143;-65
2021/11/23 00:34:37;;;;;;;4.95;2.00;;;;;;;3.61;54.09;100861.59;1740683;80;21048;-65
2021/11/23 00:37:03;;;;;;;5.00;2.30;;;;;;;3.62;53.88;100865.90;1723865;81;21181;-65
2021/11/23 00:39:31;;;;;;;5.72;2.35;;;;;;;3.62;54.00;100860.69;1745433;81;21069;-65
2021/11/23 00:41:57;;;;;;;7.20;2.52;;;;;;;3.62;53.97;100863.77;1741368;80;21502;-65
2021/11/23 00:44:23;;;;;;;13.08;3.42;;;;;;;3.59;53.77;100859.98;1744654;80;21090;-67
2021/11/23 00:46:50;;;;;;;5.58;2.72;;;;;;;3.58;53.95;100866.09;1747511;80;21032;-65
2021/11/23 00:49:16;;;;;;;7.40;3.05;;;;;;;3.60;54.03;100868.16;1739921;80;21043;-65
2021/11/23 00:51:43;;;;;;;7.50;2.98;;;;;;;3.59;54.05;100874.30;1717939;80;21079;-65
2021/11/23 00:54:10;;;;;;;6.85;2.70;;;;;;;3.57;54.15;100870.92;1735045;80;21103;-65
2021/11/23 00:56:36;;;;;;;9.93;2.95;;;;;;;3.55;54.13;100881.39;1736950;80;21890;-64
2021/11/23 00:59:05;;;;;;;7.47;2.70;;;;;;;3.50;53.93;100880.28;1738029;80;21004;-65
2021/11/23 01:01:31;;;;;;;8.78;2.52;;;;;;;3.48;54.00;100882.55;1744902;80;21103;-65
2021/11/23 01:03:58;;;;;;;6.17;3.02;;;;;;;3.44;54.27;100887.03;1736109;80;21055;-66
2021/11/23 01:06:25;;;;;;;6.22;2.55;;;;;;;3.42;54.11;100887.56;1742850;80;21487;-65
2021/11/23 01:08:52;;;;;;;7.55;2.85;;;;;;;3.37;54.09;100887.38;1740721;80;21108;-65
2021/11/23 01:11:19;;;;;;;6.87;2.37;;;;;;;3.30;53.97;100893.29;1741271;80;21286;-65
2021/11/23 01:13:46;;;;;;;6.37;2.75;;;;;;;3.24;54.29;100892.23;1718152;80;21107;-65
2021/11/23 01:16:13;;;;;;;6.67;2.67;;;;;;;3.19;54.27;100895.02;1702961;81;21020;-65
2021/11/23 01:18:42;;;;;;;5.05;2.67;;;;;;;3.13;54.54;100895.28;1742248;80;21093;-65
2021/11/23 01:21:09;;;;;;;9.25;3.30;;;;;;;3.12;54.48;100899.62;1744589;80;21125;-65
2021/11/23 01:23:37;;;;;;;7.05;3.50;;;;;;;3.10;54.50;100895.41;1723885;81;21560;-64
2021/11/23 01:26:03;;;;;;;6.05;2.95;;;;;;;3.07;54.61;100900.27;1741490;80;21070;-65
2021/11/23 01:28:31;;;;;;;7.83;3.10;;;;;;;3.09;54.68;100893.70;1747335;80;21089;-65
2021/11/23 01:30:57;;;;;;;6.30;3.22;;;;;;;3.11;54.84;100903.15;1741858;81;21099;-65
2021/11/23 01:33:23;;;;;;;6.40;3.25;;;;;;;3.13;54.85;100900.02;1720205;80;21172;-64
2021/11/23 01:35:50;;;;;;;6.58;3.17;;;;;;;3.14;54.59;100905.63;1738473;80;21731;-65
2021/11/23 01:38:16;;;;;;;7.50;2.70;;;;;;;3.09;54.34;100901.07;1740524;80;21192;-65
2021/11/23 01:40:45;;;;;;;7.00;3.12;;;;;;;3.03;54.57;100905.20;1735483;80;21008;-65
2021/11/23 01:43:12;;;;;;;8.53;3.15;;;;;;;3.02;54.61;100905.27;1714972;81;21506;-65
2021/11/23 01:45:39;;;;;;;5.53;2.62;;;;;;;2.95;54.03;100897.70;1739057;80;21148;-65
2021/11/23 01:48:07;;;;;;;7.65;3.25;;;;;;;2.93;54.08;100898.69;1676785;83;21046;-65
2021/11/23 01:50:34;;;;;;;9.15;3.02;;;;;;;2.88;54.37;100896.73;1695461;82;21027;-65
2021/11/23 01:53:04;;;;;;;6.03;2.85;;;;;;;2.87;54.42;100901.06;1697188;83;21062;-65
2021/11/23 01:55:33;;;;;;;8.50;2.83;;;;;;;2.88;54.49;100899.33;1722744;80;21045;-65
2021/11/23 01:58:01;;;;;;;6.15;2.80;;;;;;;2.84;54.52;100896.01;1722446;81;21120;-65
2021/11/23 02:00:28;;;;;;;8.00;3.40;;;;;;;2.85;54.25;100894.25;1691195;82;21028;-65
2021/11/23 02:03:14;;;;;;;7.95;3.12;;;;;;;2.82;54.36;100896.96;1724595;81;21051;-66
2021/11/23 02:05:59;;;;;;;6.78;3.17;;;;;;;2.76;54.50;100904.09;1733974;80;21017;-66
2021/11/23 02:08:26;;;;;;;8.83;3.37;;;;;;;2.73;54.61;100901.61;1699305;82;21595;-65
2021/11/23 02:10:54;;;;;;;8.23;3.40;;;;;;;2.75;54.96;100902.39;1692769;82;21055;-65
2021/11/23 02:13:21;;;;;;;6.60;3.15;;;;;;;2.73;54.97;100896.41;1732088;80;21031;-65
2021/11/23 02:15:49;;;;;;;6.50;2.83;;;;;;;2.74;55.22;100896.82;1709766;81;21063;-65
2021/11/23 02:18:18;;;;;;;7.80;3.27;;;;;;;2.77;55.33;100903.63;1731502;80;21059;-64
2021/11/23 02:20:45;;;;;;;7.85;3.30;;;;;;;2.81;54.85;100901.75;1740768;80;21568;-65
2021/11/23 02:23:11;;;;;;;7.78;3.20;;;;;;;2.82;54.62;100900.86;1732220;81;21599;-65
2021/11/23 02:25:38;;;;;;;6.53;2.77;;;;;;;2.79;54.64;100907.01;1722700;81;21507;-65
2021/11/23 02:28:08;;;;;;;7.78;3.55;;;;;;;2.76;54.46;100907.16;1681119;83;21095;-65
2021/11/23 02:30:41;;;;;;;9.58;3.90;;;;;;;2.74;54.70;100905.05;1719627;82;21180;-64
2021/11/23 02:33:07;;;;;;;8.93;3.98;;;;;;;2.77;54.70;100911.42;1736040;81;21057;-65
2021/11/23 02:35:34;;;;;;;8.60;3.70;;;;;;;2.75;54.47;100910.19;1734141;80;21133;-65
2021/11/23 02:38:01;;;;;;;11.33;3.70;;;;;;;2.73;54.62;100908.11;1693854;81;21063;-65
2021/11/23 02:40:27;;;;;;;7.72;3.15;;;;;;;2.74;54.54;100909.81;1730513;81;21151;-65
2021/11/23 02:42:55;;;;;;;7.28;3.20;;;;;;;2.79;54.59;100911.78;1735514;80;21098;-65
2021/11/23 02:45:23;;;;;;;6.15;3.30;;;;;;;2.83;54.66;100914.26;1742355;80;21103;-65
2021/11/23 02:47:50;;;;;;;7.72;3.55;;;;;;;2.88;54.58;100922.26;1748725;80;21135;-63
2021/11/23 02:50:17;;;;;;;7.85;3.37;;;;;;;2.90;54.58;100919.60;1744731;80;21094;-63
2021/11/23 02:52:48;;;;;;;6.33;3.27;;;;;;;2.90;54.71;100918.30;1742936;80;21074;-65
2021/11/23 02:55:15;;;;;;;7.92;3.40;;;;;;;2.90;54.78;100921.73;1746699;81;21053;-65
2021/11/23 02:57:42;;;;;;;7.42;3.05;;;;;;;2.89;55.11;100926.56;1736842;80;21484;-65
2021/11/23 03:00:17;;;;;;;7.25;3.50;;;;;;;2.88;54.70;100918.83;1746532;80;22688;-65
2021/11/23 03:02:44;;;;;;;6.03;2.73;;;;;;;2.85;54.91;100916.34;1754078;79;21027;-63
2021/11/23 03:05:11;;;;;;;5.55;2.45;;;;;;;2.84;54.44;100918.10;1715371;80;21109;-64
2021/11/23 03:07:39;;;;;;;5.70;2.20;;;;;;;2.81;54.13;100916.92;1744462;80;21490;-63
2021/11/23 03:10:08;;;;;;;6.55;2.60;;;;;;;2.79;53.99;100915.67;1741481;80;21549;-63
2021/11/23 03:12:35;;;;;;;5.85;2.27;;;;;;;2.77;53.85;100914.89;1721316;81;21127;-64
2021/11/23 03:15:03;;;;;;;7.05;2.40;;;;;;;2.73;53.97;100925.00;1744175;80;21083;-63
2021/11/23 03:17:30;;;;;;;6.30;2.50;;;;;;;2.68;53.69;100931.29;1745861;80;21521;-63
2021/11/23 03:19:56;;;;;;;7.00;2.98;;;;;;;2.54;53.89;100931.80;1737472;80;21039;-63
2021/11/23 03:22:23;;;;;;;6.47;2.80;;;;;;;2.44;53.98;100931.31;1740776;81;21056;-63
2021/11/23 03:24:50;;;;;;;7.10;3.15;;;;;;;2.37;54.46;100937.62;1742906;80;21225;-63
2021/11/23 03:27:17;;;;;;;8.43;3.45;;;;;;;2.32;54.58;100940.41;1745693;80;21008;-64
2021/11/23 03:29:44;;;;;;;7.47;3.05;;;;;;;2.26;54.91;100946.28;1744852;80;21372;-64
2021/11/23 03:32:11;;;;;;;7.47;3.20;;;;;;;2.20;54.95;100942.13;1740340;80;21095;-64
2021/11/23 03:34:39;;;;;;;7.62;3.17;;;;;;;2.16;55.17;100944.46;1742836;80;21067;-64
2021/11/23 09:06:13;;;;;;;;;;;;;;;4.14;50.69;100968.23;1795766;79;22109;-68
2021/11/23 09:08:46;;;;;;;7.03;3.25;;;;;;;4.03;51.14;100982.16;1749065;80;20143;-68
2021/11/23 09:11:09;;;;;;;6.65;3.75;;;;;;;3.96;50.94;100991.16;1745259;80;21074;-70
2021/11/23 09:13:37;;;;;;;7.97;3.20;;;;;;;3.90;51.17;100984.00;1749475;80;21016;-65
2021/11/23 09:16:04;;;;;;;8.48;4.58;;;;;;;3.86;51.46;100973.78;1745382;80;21037;-66
2021/11/23 09:18:31;;;;;;;9.80;4.83;;;;;;;3.83;51.35;100980.41;1707433;81;21058;-68
2021/11/23 09:20:57;;;;;;;9.00;4.25;;;;;;;3.82;51.78;100975.67;1706800;81;21505;-67
2021/11/23 09:23:25;;;;;;;9.60;5.25;;;;;;;3.82;51.90;100970.46;1720004;81;21089;-69
2021/11/23 09:25:52;;;;;;;8.53;4.12;;;;;;;3.87;52.03;100966.37;1692245;81;21027;-68
2021/11/23 09:28:18;;;;;;;7.58;3.98;;;;;;;3.95;51.73;100962.98;1686962;83;21093;-68
2021/11/23 09:30:45;;;;;;;8.10;4.15;;;;;;;3.98;51.80;100966.73;1713219;81;21109;-66
2021/11/23 09:33:14;;;;;;;7.92;4.22;;;;;;;3.97;51.48;100968.97;1714709;81;21159;-68
2021/11/23 09:35:40;;;;;;;9.83;4.42;;;;;;;3.94;51.73;100968.25;1714462;81;21399;-69
2021/11/23 09:38:07;;;;;;;8.00;4.33;;;;;;;3.97;51.69;100964.19;1682271;81;21086;-69
2021/11/23 09:40:34;;;;;;;9.23;5.28;;;;;;;4.00;51.68;100967.53;1706975;81;21631;-69
2021/11/23 09:43:01;;;;;;;11.38;5.47;;;;;;;4.05;51.93;100960.80;1682490;81;21086;-69
2021/11/23 09:45:28;;;;;;;12.65;5.95;;;;;;;4.09;51.76;100957.17;1703949;81;21023;-68
2021/11/23 09:47:56;;;;;;;13.13;6.75;;;;;;;4.15;51.81;100956.88;1715053;81;21131;-67
2021/11/23 09:52:48;;;;;;;12.33;5.28;;;;;;;4.26;51.77;100953.34;1831988;75;22404;-67
2021/11/23 09:55:17;;;;;;;9.88;5.10;;;;;;;4.20;51.67;100959.29;1806627;77;21652;-65
2021/11/23 09:57:43;;;;;;;11.80;6.70;;;;;;;4.23;51.56;100958.69;1773159;77;21150;-70
2021/11/23 10:00:28;;;;;;;12.93;5.95;;;;;;;4.20;51.38;100951.04;1809808;77;21710;-67
2021/11/23 10:03:09;;;;;;;11.43;5.10;;;;;;;4.15;51.37;100943.86;1802459;77;21093;-68
2021/11/23 10:05:38;;;;;;;8.28;3.95;;;;;;;4.08;51.47;100939.84;1808817;78;21051;-65
2021/11/23 10:08:12;;;;;;;8.53;4.60;;;;;;;4.05;51.62;100945.17;1804547;77;21127;-67
2021/11/23 10:10:50;;;;;;;7.12;3.25;;;;;;;4.02;51.90;100949.24;1803154;77;21372;-69
2021/11/23 10:13:18;;;;;;;8.83;3.80;;;;;;;4.06;51.77;100945.11;1768365;78;28804;-69
2021/11/23 10:15:48;;;;;;;9.03;3.77;;;;;;;4.09;51.66;100941.54;1774968;78;21053;-66
2021/11/23 10:18:22;;;;;;;9.38;3.60;;;;;;;4.08;51.85;100934.63;1805731;77;21049;-68
2021/11/23 10:20:57;;;;;;;8.15;4.00;;;;;;;4.07;51.88;100932.95;1803458;77;21891;-67
2021/11/23 10:23:42;;;;;;;10.80;5.33;;;;;;;4.03;51.93;100930.08;1774672;78;21798;-67
2021/11/23 10:26:16;;;;;;;8.73;3.40;;;;;;;4.02;52.03;100933.62;1804013;77;21631;-67
2021/11/23 10:28:54;;;;;;;8.73;3.50;;;;;;;4.04;52.09;100933.09;1806214;77;21069;-65
2021/11/23 10:31:25;;;;;;;8.05;4.22;;;;;;;4.06;51.96;100923.44;1802481;77;21077;-62
2021/11/23 10:34:02;;;;;;;8.18;3.83;;;;;;;4.12;52.03;100925.78;1805136;77;21584;-61
2021/11/23 10:36:31;;;;;;;7.03;3.50;;;;;;;4.22;51.72;100917.95;1801263;77;21179;-65
2021/11/23 10:39:08;;;;;;;5.33;2.25;;;;;;;4.34;51.55;100917.84;1806454;77;21112;-65
2021/11/23 10:41:35;;;;;;;6.53;2.58;;;;;;;4.44;51.10;100914.37;1801024;77;21073;-68
2021/11/23 10:44:03;;;;;;;7.47;2.42;;;;;;;4.48;51.09;100913.30;1800733;77;21561;-74
2021/11/23 10:46:31;;;;;;;6.45;2.83;;;;;;;4.52;51.13;100912.23;1806181;77;22073;-72
2021/11/23 10:49:01;;;;;;;5.30;2.58;;;;;;;4.61;50.59;100903.16;1805635;77;21505;-69
2021/11/23 10:51:38;;;;;;;6.55;3.20;;;;;;;4.67;50.20;100900.71;1804841;77;21624;-80
2021/11/23 10:54:13;;;;;;;5.60;2.85;;;;;;;4.73;49.99;100898.66;1791364;78;21105;-70
2021/11/23 10:57:03;;;;;;;7.42;2.72;;;;;;;4.80;49.60;100892.23;1788581;78;21165;-74
2021/11/23 10:59:31;;;;;;;6.40;2.45;;;;;;;4.84;49.67;100889.02;1752320;79;21062;-73
2021/11/23 11:01:58;;;;;;;6.12;2.40;;;;;;;4.87;49.83;100883.66;1793286;78;21332;-71
2021/11/23 11:04:27;;;;;;;6.60;3.08;;;;;;;4.88;49.33;100886.66;1793313;78;21420;-70
2021/11/23 11:06:55;;;;;;;5.97;2.70;;;;;;;4.87;49.48;100876.30;1767803;78;21418;-69
2021/11/23 11:09:23;;;;;;;7.95;3.02;;;;;;;4.91;49.39;100878.69;1792966;78;21079;-63
2021/11/23 11:11:50;;;;;;;5.60;2.50;;;;;;;4.96;49.24;100876.70;1789252;78;21094;-63
2021/11/23 11:14:18;;;;;;;3.72;1.80;;;;;;;4.96;48.97;100876.70;1792161;78;21456;-62
2021/11/23 11:16:44;;;;;;;5.50;2.20;;;;;;;4.87;49.27;100878.44;1798159;78;21141;-63
2021/11/23 11:19:14;;;;;;;6.65;2.15;;;;;;;4.76;49.10;100876.83;1717763;78;21515;-62
2021/11/23 11:21:54;;;;;;;5.17;2.35;;;;;;;4.69;49.71;100876.27;1793424;78;22038;-65
2021/11/23 11:24:39;;;;;;;6.72;2.80;;;;;;;4.67;49.87;100873.34;1790236;78;21074;-65
2021/11/23 11:27:12;;;;;;;6.53;3.12;;;;;;;4.69;49.88;100868.89;1763568;78;21164;-63
2021/11/23 11:29:39;;;;;;;6.22;2.00;;;;;;;4.73;50.03;100863.47;1795701;77;21046;-63
2021/11/23 11:32:06;;;;;;;4.58;1.90;;;;;;;4.74;49.92;100855.17;1803797;78;21058;-70
2021/11/23 11:34:38;;;;;;;5.35;2.12;;;;;;;4.71;50.02;100864.44;1784187;78;21624;-69
2021/11/23 11:37:16;;;;;;;6.28;2.10;;;;;;;4.68;49.99;100856.80;1794555;79;21573;-66
2021/11/23 11:39:50;;;;;;;7.58;2.33;;;;;;;4.70;50.08;100857.56;1788842;78;22325;-67
2021/11/23 11:42:26;;;;;;;5.63;1.90;;;;;;;4.71;49.85;100863.14;1786753;78;21071;-61
2021/11/23 11:44:54;;;;;;;7.70;2.35;;;;;;;4.69;50.00;100860.63;1793150;78;21094;-63
2021/11/23 11:47:31;;;;;;;5.70;2.40;;;;;;;4.69;50.27;100850.20;1784199;77;21063;-61
2021/11/23 11:50:02;;;;;;;5.05;2.45;;;;;;;4.74;50.17;100854.73;1791309;78;21070;-66
2021/11/23 11:52:30;;;;;;;5.50;2.47;;;;;;;4.77;50.21;100853.27;1796201;78;21230;-67
2021/11/23 11:55:16;;;;;;;6.42;2.45;;;;;;;4.82;50.24;100849.13;1786943;78;21073;-65
2021/11/23 11:57:46;;;;;;;;;;;;;;;4.87;50.33;100849.75;1792420;78;21069;-63
2021/11/23 12:00:41;;;;;;;6.30;2.60;;;;;;;4.92;50.11;100839.94;1799478;78;20190;-65
2021/11/23 12:03:18;;;;;;;5.78;2.92;;;;;;;4.88;50.25;100837.11;1792452;78;21106;-66
2021/11/23 12:05:59;;;;;;;5.28;2.02;;;;;;;4.91;50.26;100842.19;1794040;78;22052;-71
2021/11/23 12:08:30;;;;;;;5.87;2.65;;;;;;;4.93;50.19;100842.95;1791773;78;21061;-68
2021/11/23 12:10:58;;;;;;;7.15;2.47;;;;;;;4.97;50.11;100839.72;1787752;77;21497;-65
2021/11/23 12:13:48;;;;;;;6.92;3.00;;;;;;;5.02;50.10;100845.55;1769399;78;21044;-65
2021/11/23 12:16:37;;;;;;;5.87;2.33;;;;;;;5.02;49.85;100839.87;1787982;79;21063;-65
2021/11/23 12:19:51;;;;;;;4.83;1.98;;;;;;;4.96;50.12;100836.28;1798419;77;21581;-65
2021/11/23 12:22:22;;;;;;;6.47;2.75;;;;;;;4.87;50.39;100847.15;1795812;78;21039;-65
2021/11/23 12:24:54;;;;;;;5.60;2.58;;;;;;;4.79;50.84;100846.67;1771319;78;21043;-65
2021/11/23 12:27:21;;;;;;;5.55;2.62;;;;;;;4.77;50.80;100849.82;1766515;79;21137;-64
2021/11/23 12:29:54;;;;;;;6.92;2.35;;;;;;;4.71;50.82;100851.41;1773630;79;21056;-64
2021/11/23 12:32:18;;;;;;;7.10;3.05;;;;;;;4.65;50.83;100854.70;1813963;77;21178;-63
2021/11/23 12:34:50;;;;;;;7.53;3.02;;;;;;;4.60;51.15;100855.38;1796551;78;21623;-64
2021/11/23 12:37:17;;;;;;;5.87;2.50;;;;;;;4.58;51.40;100858.52;1795263;78;21114;-66
2021/11/23 12:39:43;;;;;;;4.95;2.65;;;;;;;4.55;51.57;100854.75;1769967;78;21062;-63
2021/11/23 12:42:12;;;;;;;5.33;2.33;;;;;;;4.57;51.65;100853.38;1770375;79;21133;-66
2021/11/23 12:44:43;;;;;;;7.58;3.17;;;;;;;4.56;51.71;100849.94;1760519;78;21155;-68
2021/11/23 12:47:16;;;;;;;5.47;2.47;;;;;;;4.57;51.67;100851.64;1783650;79;21000;-69
2021/11/23 12:49:45;;;;;;;6.72;2.72;;;;;;;4.55;51.67;100851.31;1774282;78;21117;-67
2021/11/23 12:52:15;;;;;;;5.87;2.70;;;;;;;4.54;51.80;100855.69;1773450;77;21081;-70
2021/11/23 12:54:45;;;;;;;5.72;2.65;;;;;;;4.57;51.78;100846.42;1794240;78;21066;-69
2021/11/23 12:57:14;;;;;;;7.80;2.72;;;;;;;4.61;51.95;100853.63;1796384;78;21508;-67
2021/11/23 12:59:48;;;;;;;7.72;2.95;;;;;;;4.69;51.87;100851.95;1793797;78;21497;-64
2021/11/23 13:02:38;;;;;;;5.70;3.08;;;;;;;4.77;51.68;100848.52;1798548;78;21127;-65
2021/11/23 13:05:19;;;;;;;8.25;3.98;;;;;;;4.83;51.79;100842.55;1789708;78;21466;-67
2021/11/23 13:08:00;;;;;;;9.03;4.42;;;;;;;4.90;51.76;100850.08;1779728;78;21109;-65
2021/11/23 13:10:38;;;;;;;14.15;5.22;;;;;;;4.88;51.86;100848.02;1788072;79;22257;-68
2021/11/23 13:13:22;;;;;;;14.28;5.15;;;;;;;4.87;51.98;100844.54;1725640;81;21545;-69
2021/11/23 13:15:51;;;;;;;10.40;5.85;;;;;;;4.84;52.13;100847.30;1786999;78;21076;-66
2021/11/23 13:18:21;;;;;;;9.68;5.40;;;;;;;4.85;52.18;100845.08;1790073;78;21497;-66
2021/11/23 13:20:50;;;;;;;9.20;4.42;;;;;;;4.86;52.17;100844.61;1789288;78;21556;-65
2021/11/23 13:23:31;;;;;;;9.10;4.78;;;;;;;4.83;52.53;100845.62;1775246;78;21292;-65
2021/11/23 13:26:10;;;;;;;8.13;4.72;;;;;;;4.81;52.43;100843.09;1757152;79;21100;-65
2021/11/23 13:28:42;;;;;;;9.88;4.42;;;;;;;4.79;52.51;100845.37;1791393;78;21549;-66
2021/11/23 13:31:21;;;;;;;9.33;4.37;;;;;;;4.76;52.65;100841.63;1767943;79;21631;-66
2021/11/23 13:33:59;;;;;;;10.10;5.00;;;;;;;4.73;52.69;100841.78;1793394;77;21085;-66
2021/11/23 13:36:41;;;;;;;7.90;4.35;;;;;;;4.71;52.80;100840.55;1789604;78;21112;-66
2021/11/23 13:39:15;;;;;;;9.48;4.92;;;;;;;4.69;52.78;100837.17;1771208;79;21050;-65
2021/11/23 13:41:47;;;;;;;9.78;4.92;;;;;;;4.66;52.81;100837.31;1773193;78;21058;-66
2021/11/23 13:44:31;;;;;;;10.35;5.05;;;;;;;4.59;53.09;100831.55;1767176;78;21097;-65
2021/11/23 13:47:17;;;;;;;9.00;5.08;;;;;;;4.53;53.08;100834.91;1767926;79;21106;-63
2021/11/23 13:49:44;;;;;;;12.10;5.85;;;;;;;4.46;53.07;100833.88;1774585;79;22222;-62
2021/11/23 13:52:20;;;;;;;12.40;5.17;;;;;;;4.43;53.15;100839.70;1795467;78;21460;-69
2021/11/23 13:54:54;;;;;;;9.53;5.70;;;;;;;4.41;53.29;100838.47;1795482;78;21125;-71
2021/11/23 13:57:25;;;;;;;9.33;5.92;;;;;;;4.41;53.19;100838.94;1771099;78;21704;-72
2021/11/23 13:59:59;;;;;;;11.63;6.30;;;;;;;4.38;53.40;100837.77;1788033;78;21616;-69
2021/11/23 14:03:05;;;;;;;9.27;5.97;;;;;;;4.37;53.56;100841.28;1771628;79;21759;-70
2021/11/23 14:05:45;;;;;;;11.73;6.35;;;;;;;4.39;53.51;100842.08;1787657;78;21728;-70
2021/11/23 14:08:23;;;;;;;13.58;6.53;;;;;;;4.37;53.48;100838.24;1787509;78;21376;-70
2021/11/23 14:11:00;;;;;;;19.32;7.62;;;;;;;4.35;53.50;100838.75;1791997;78;22226;-69
2021/11/23 14:13:30;;;;;;;12.95;6.92;;;;;;;4.34;53.62;100845.33;1775339;79;21090;-68
2021/11/23 14:15:58;;;;;;;13.85;7.40;;;;;;;4.34;53.61;100849.23;1794991;78;21952;-67
2021/11/23 14:18:28;;;;;;;13.55;7.83;;;;;;;4.33;53.70;100849.70;1790194;78;21062;-70
2021/11/23 14:21:11;;;;;;;15.53;8.55;;;;;;;4.33;53.80;100847.57;1735039;80;21545;-72
2021/11/23 14:23:46;;;;;;;31.20;16.62;;;;;;;4.34;53.80;100844.03;1788302;78;21051;-71
2021/11/23 14:26:21;;;;;;;36.83;16.85;;;;;;;4.33;54.10;100839.28;1798611;78;21003;-70
2021/11/23 14:29:08;;;;;;;30.85;13.53;;;;;;;4.36;54.15;100838.31;1792762;78;21152;-71
2021/11/23 14:31:38;;;;;;;36.48;20.70;;;;;;;4.36;54.14;100838.31;1795339;78;21006;-71
2021/11/23 14:34:07;;;;;;;28.90;13.83;;;;;;;4.37;54.14;100842.59;1794176;79;21321;-70
2021/11/23 14:36:39;;;;;;;17.52;10.50;;;;;;;4.36;54.14;100839.62;1793373;78;21050;-71
2021/11/23 14:39:07;;;;;;;15.40;8.10;;;;;;;4.36;54.05;100835.23;1770461;78;21065;-71
2021/11/23 14:41:35;;;;;;;10.82;6.75;;;;;;;4.35;54.17;100832.70;1775447;79;21046;-70
2021/11/23 14:44:02;;;;;;;14.33;6.37;;;;;;;4.35;54.12;100834.00;1772208;78;21129;-68
2021/11/23 14:46:28;;;;;;;15.32;7.42;;;;;;;4.34;54.01;100840.13;1785591;77;21616;-68
2021/11/23 14:48:57;;;;;;;12.75;6.47;;;;;;;4.33;53.98;100833.23;1793997;77;21109;-70
2021/11/23 14:51:27;;;;;;;11.93;5.33;;;;;;;4.30;54.04;100842.50;1774603;78;21542;-68
2021/11/23 14:53:54;;;;;;;14.83;6.40;;;;;;;4.27;53.93;100833.08;1758718;79;21046;-70
2021/11/23 14:56:23;;;;;;;9.88;4.90;;;;;;;4.26;53.95;100839.19;1783522;78;21094;-71
2021/11/23 14:58:50;;;;;;;11.55;4.97;;;;;;;4.26;53.84;100847.84;1726655;81;21087;-76
2021/11/23 15:01:17;;;;;;;11.33;5.33;;;;;;;4.25;53.96;100846.17;1695125;82;21087;-72
2021/11/23 15:03:46;;;;;;;10.72;4.67;;;;;;;4.24;54.11;100844.47;1719505;81;21098;-65
2021/11/23 15:06:14;;;;;;;10.58;5.45;;;;;;;4.24;53.97;100849.68;1718320;82;21107;-66
2021/11/23 15:08:42;;;;;;;9.53;5.00;;;;;;;4.23;53.94;100846.67;1718559;81;21434;-68
2021/11/23 15:11:08;;;;;;;11.78;5.08;;;;;;;4.22;54.05;100854.56;1724000;81;21092;-66
2021/11/23 15:13:37;;;;;;;11.65;5.83;;;;;;;4.19;54.15;100857.33;1721314;81;21063;-68
2021/11/23 15:16:08;;;;;;;10.32;6.53;;;;;;;4.18;54.16;100858.23;1722871;81;20992;-68
2021/11/23 15:18:36;;;;;;;13.28;6.47;;;;;;;4.17;54.50;100860.44;1728838;81;21494;-65
2021/11/23 15:21:03;;;;;;;10.13;5.95;;;;;;;4.16;55.01;100859.61;1723231;81;21080;-66
2021/11/23 15:23:29;;;;;;;11.18;5.87;;;;;;;4.14;55.31;100866.65;1723193;81;21586;-66
2021/11/23 15:25:56;;;;;;;12.50;6.60;;;;;;;4.13;55.91;100868.85;1719664;81;21047;-65
2021/11/23 15:28:23;;;;;;;13.93;7.05;;;;;;;4.13;56.43;100861.04;1727673;81;22258;-64
2021/11/23 15:30:50;;;;;;;16.20;8.18;;;;;;;4.12;56.92;100865.02;1722827;82;21140;-65
2021/11/23 15:33:17;;;;;;;12.75;7.45;;;;;;;4.08;57.40;100876.03;1720916;81;21104;-62
2021/11/23 15:35:43;;;;;;;13.90;8.25;;;;;;;4.05;58.00;100874.86;1727798;81;21396;-68
2021/11/23 15:38:10;;;;;;;14.58;8.28;;;;;;;3.99;58.54;100873.86;1721368;82;21114;-66
2021/11/23 15:40:37;;;;;;;17.42;9.53;;;;;;;4.00;58.91;100874.23;1719042;81;21066;-68
2021/11/23 15:43:05;;;;;;;16.02;9.28;;;;;;;4.04;59.11;100873.19;1724962;81;21151;-69
2021/11/23 15:45:33;;;;;;;13.08;8.20;;;;;;;4.09;59.54;100868.16;1723865;80;21968;-69
2021/11/23 15:47:59;;;;;;;14.83;8.90;;;;;;;4.18;59.84;100863.44;1720131;81;21054;-71
2021/11/23 15:50:29;;;;;;;16.35;9.48;;;;;;;4.21;60.05;100869.35;1721203;81;21110;-71
2021/11/23 15:52:55;;;;;;;19.12;9.35;;;;;;;4.24;60.16;100873.12;1721895;81;21083;-69
2021/11/23 15:55:22;;;;;;;18.45;10.25;;;;;;;4.23;60.11;100880.54;1751441;79;21061;-69
2021/11/23 15:57:49;;;;;;;14.23;8.48;;;;;;;4.21;60.33;100876.33;1755559;79;21086;-67
2021/11/23 16:00:16;;;;;;;13.85;8.38;;;;;;;4.17;60.39;100879.54;1723642;80;21115;-68
2021/11/23 16:02:43;;;;;;;18.23;8.73;;;;;;;4.14;60.42;100880.14;1700277;81;21075;-69
2021/11/23 16:05:09;;;;;;;13.22;7.05;;;;;;;4.09;60.46;100880.34;1733931;80;21215;-67
2021/11/23 16:07:36;;;;;;;14.85;8.60;;;;;;;4.01;60.48;100885.05;1732657;80;21141;-69
2021/11/23 16:10:04;;;;;;;16.30;8.20;;;;;;;3.89;60.72;100882.06;1736442;80;21134;-65
2021/11/23 16:12:31;;;;;;;12.55;7.72;;;;;;;3.83;60.99;100878.45;1724764;80;21123;-65
2021/11/23 16:14:58;;;;;;;15.88;7.70;;;;;;;3.75;61.25;100872.73;1726900;80;21082;-64
2021/11/23 16:17:28;;;;;;;12.70;7.00;;;;;;;3.69;61.42;100878.19;1754434;79;21417;-63
2021/11/23 16:19:54;;;;;;;12.05;7.00;;;;;;;3.64;61.66;100872.34;1754854;79;21129;-65
2021/11/23 16:22:21;;;;;;;12.98;7.62;;;;;;;3.58;61.84;100868.69;1757457;79;21066;-68
2021/11/23 16:24:48;;;;;;;11.85;6.55;;;;;;;3.52;62.10;100873.25;1744858;80;21329;-64
2021/11/23 16:27:14;;;;;;;10.53;6.15;;;;;;;3.54;62.22;100868.81;1756540;79;21036;-65
2021/11/23 16:29:49;;;;;;;10.90;5.75;;;;;;;3.62;62.25;100868.97;1735030;80;21050;-68
2021/11/23 16:32:15;;;;;;;10.68;6.50;;;;;;;3.69;62.29;100874.28;1738060;80;21522;-68
2021/11/23 16:34:44;;;;;;;12.07;6.30;;;;;;;3.77;62.34;100872.20;1752078;79;21589;-68
2021/11/23 16:37:11;;;;;;;9.80;6.28;;;;;;;3.85;62.52;100862.30;1729835;81;21106;-68
2021/11/23 16:39:37;;;;;;;12.10;7.08;;;;;;;3.89;62.59;100867.73;1753414;79;21249;-69
2021/11/23 16:42:04;;;;;;;11.95;6.85;;;;;;;3.91;62.46;100866.38;1752234;79;21561;-69
2021/11/23 16:44:31;;;;;;;13.05;6.80;;;;;;;3.91;62.49;100867.67;1758309;79;21057;-67
2021/11/23 16:46:57;;;;;;;15.55;6.78;;;;;;;3.89;62.45;100867.73;1748790;79;21000;-66
2021/11/23 16:49:24;;;;;;;9.73;6.05;;;;;;;3.85;62.55;100870.11;1756107;79;21090;-66
2021/11/23 16:51:50;;;;;;;13.13;7.10;;;;;;;3.82;62.66;100868.94;1754508;79;20995;-67
2021/11/23 16:54:17;;;;;;;11.12;6.22;;;;;;;3.82;62.80;100869.41;1756293;79;21070;-67
2021/11/23 16:56:43;;;;;;;11.65;6.35;;;;;;;3.80;62.76;100875.97;1752844;79;21144;-62
2021/11/23 16:59:12;;;;;;;14.38;6.28;;;;;;;3.77;62.80;100873.50;1750912;79;21463;-67
2021/11/23 17:01:42;;;;;;;11.63;6.05;;;;;;;3.72;62.85;100868.95;1748156;79;21062;-63
2021/11/23 17:04:08;;;;;;;11.65;6.15;;;;;;;3.65;62.95;100870.14;1758098;79;21086;-65
2021/11/23 17:06:36;;;;;;;12.47;6.50;;;;;;;3.58;63.27;100871.30;1752750;79;21409;-65
2021/11/23 17:09:03;;;;;;;13.28;7.03;;;;;;;3.52;63.48;100868.05;1735516;79;21118;-66
2021/11/23 17:11:30;;;;;;;9.10;5.75;;;;;;;3.55;63.62;100872.29;1748153;79;21062;-65
2021/11/23 17:13:57;;;;;;;11.63;6.42;;;;;;;3.65;63.55;100876.64;1760930;79;21154;-67
2021/11/23 17:16:25;;;;;;;10.90;6.80;;;;;;;3.76;63.59;100880.07;1754237;79;21059;-66